createdAt,value
2023-01-23T00:00:40.499Z,100478.72
2023-01-23T00:03:07.292Z,100472.63
2023-01-23T00:05:33.890Z,100472.63
2023-01-23T00:08:00.564Z,100471.97
2023-01-23T00:10:27.254Z,100470.22
2023-01-23T00:12:54.485Z,100475.38
2023-01-23T00:15:21.189Z,100481.44
2023-01-23T00:17:48.450Z,100485.00
2023-01-23T00:20:15.455Z,100486.63
2023-01-23T00:22:42.191Z,100484.00
2023-01-23T00:25:09.004Z,100481.31
2023-01-23T00:27:35.728Z,100483.06
2023-01-23T00:30:02.497Z,100483.09
2023-01-23T00:32:29.145Z,100486.53
2023-01-23T00:34:55.830Z,100478.59
2023-01-23T00:37:22.490Z,100478.56
2023-01-23T00:39:50.995Z,100475.91
2023-01-23T00:42:18.109Z,100473.28
2023-01-23T00:44:44.795Z,100476.75
2023-01-23T00:47:11.409Z,100471.56
2023-01-23T00:49:38.013Z,100475.88
2023-01-23T00:52:04.769Z,100474.22
2023-01-23T00:54:31.454Z,100476.00
2023-01-23T00:56:58.086Z,100473.34
2023-01-23T00:59:24.870Z,100476.84
2023-01-23T01:01:51.566Z,100473.38
2023-01-23T01:04:18.263Z,100473.28
2023-01-23T01:06:44.853Z,100476.84
2023-01-23T01:09:12.073Z,100469.94
2023-01-23T01:11:38.717Z,100478.72
2023-01-23T01:14:05.538Z,100478.59
2023-01-23T01:16:32.397Z,100476.94
2023-01-23T01:18:59.102Z,100477.72
2023-01-23T01:21:25.734Z,100483.78
2023-01-23T01:23:52.655Z,100480.25
2023-01-23T01:26:19.425Z,100487.31
2023-01-23T01:28:46.079Z,100494.28
2023-01-23T01:31:15.119Z,100493.47
2023-01-23T01:33:43.172Z,100494.34
2023-01-23T01:36:11.505Z,100494.44
2023-01-23T01:38:38.576Z,100504.03
2023-01-23T01:41:06.165Z,100499.66
2023-01-23T01:43:34.462Z,100504.91
2023-01-23T01:46:04.066Z,100512.69
2023-01-23T01:48:40.993Z,100513.56
2023-01-23T01:51:16.861Z,100519.50
2023-01-23T01:53:47.072Z,100533.47
2023-01-23T01:56:14.861Z,100529.13
2023-01-23T01:58:44.726Z,100529.16
2023-01-23T02:01:11.672Z,100534.38
2023-01-23T02:03:39.332Z,100535.13
2023-01-23T02:06:06.996Z,100535.09
2023-01-23T02:09:02.007Z,100536.88
2023-01-23T02:11:29.035Z,100549.97
2023-01-23T02:13:57.139Z,100547.41
2023-01-23T02:16:29.673Z,100537.75
2023-01-23T02:19:07.273Z,100546.50
2023-01-23T02:21:37.150Z,100545.56
2023-01-23T02:24:23.197Z,100547.41
2023-01-23T02:26:50.143Z,100548.34
2023-01-23T02:29:19.272Z,100546.53
2023-01-23T02:31:47.195Z,100551.81
2023-01-23T02:34:14.722Z,100553.47
2023-01-23T02:36:46.340Z,100557.84
2023-01-23T02:39:16.203Z,100550.06
2023-01-23T02:41:49.026Z,100561.31
2023-01-23T02:44:25.349Z,100553.56
2023-01-23T02:46:52.981Z,100557.06
2023-01-23T02:49:21.061Z,100550.13
2023-01-23T02:51:49.266Z,100558.78
2023-01-23T02:54:17.036Z,100561.44
2023-01-23T02:56:43.806Z,100565.66
2023-01-23T02:59:29.340Z,100561.38
2023-01-23T03:01:56.303Z,100566.63
2023-01-23T03:04:23.276Z,100570.94
2023-01-23T03:06:50.023Z,100575.31
2023-01-23T03:09:17.690Z,100567.59
2023-01-23T03:11:45.794Z,100569.25
2023-01-23T03:14:20.090Z,100570.97
2023-01-23T03:16:51.431Z,100581.41
2023-01-23T03:19:20.167Z,100576.25
2023-01-23T03:21:47.218Z,100588.34
2023-01-23T03:24:15.430Z,100584.88
2023-01-23T03:26:43.648Z,100591.84
2023-01-23T03:29:41.188Z,100594.44
2023-01-23T03:32:09.081Z,100595.38
2023-01-23T03:34:35.875Z,100601.38
2023-01-23T03:37:03.481Z,100598.00
2023-01-23T03:39:49.162Z,100605.75
2023-01-23T03:42:15.803Z,100614.44
2023-01-23T03:44:42.508Z,100621.44
2023-01-23T03:47:09.770Z,100621.47
2023-01-23T03:49:36.494Z,100619.66
2023-01-23T03:52:03.997Z,100624.81
2023-01-23T03:54:30.651Z,100631.81
2023-01-23T03:56:57.690Z,100630.13
2023-01-23T03:59:24.347Z,100637.13
2023-01-23T04:01:51.018Z,100630.94
2023-01-23T04:04:17.595Z,100638.88
2023-01-23T04:06:44.258Z,100630.09
2023-01-23T04:09:10.853Z,100631.03
2023-01-23T04:11:37.599Z,100624.06
2023-01-23T04:14:04.261Z,100623.16
2023-01-23T04:16:30.952Z,100626.59
2023-01-23T04:18:57.739Z,100633.56
2023-01-23T04:21:24.450Z,100622.38
2023-01-23T04:23:51.131Z,100624.06
2023-01-23T04:26:17.753Z,100628.41
2023-01-23T04:28:44.359Z,100625.75
2023-01-23T04:31:11.104Z,100629.28
2023-01-23T04:33:37.809Z,100631.91
2023-01-23T04:36:06.703Z,100626.69
2023-01-23T04:38:34.754Z,100635.47
2023-01-23T04:41:01.615Z,100636.28
2023-01-23T04:43:28.328Z,100633.66
2023-01-23T04:45:56.344Z,100636.25
2023-01-23T04:48:23.815Z,100632.81
2023-01-23T04:50:51.398Z,100632.78
2023-01-23T04:53:18.221Z,100630.16
2023-01-23T04:55:48.126Z,100624.16
2023-01-23T04:58:15.470Z,100618.09
2023-01-23T05:00:42.050Z,100618.19
2023-01-23T05:03:08.630Z,100612.94
2023-01-23T05:05:35.227Z,100619.84
2023-01-23T05:08:02.047Z,100617.22
2023-01-23T05:10:28.636Z,100621.59
2023-01-23T05:12:55.377Z,100624.25
2023-01-23T05:15:22.033Z,100626.88
2023-01-23T05:17:49.322Z,100634.66
2023-01-23T05:20:16.137Z,100632.88
2023-01-23T05:22:54.986Z,100634.69
2023-01-23T05:25:23.241Z,100634.69
2023-01-23T05:27:50.389Z,100632.88
2023-01-23T05:30:18.419Z,100636.44
2023-01-23T05:32:45.432Z,100635.59
2023-01-23T05:35:12.393Z,100636.44
2023-01-23T05:37:39.018Z,100646.03
2023-01-23T05:40:08.761Z,100645.13
2023-01-23T05:42:35.767Z,100648.59
2023-01-23T05:45:02.419Z,100653.72
2023-01-23T05:47:29.246Z,100661.47
2023-01-23T05:49:55.905Z,100662.47
2023-01-23T05:52:22.509Z,100668.50
2023-01-23T05:54:50.449Z,100676.34
2023-01-23T05:57:17.121Z,100672.78
2023-01-23T05:59:44.503Z,100664.16
2023-01-23T06:02:11.530Z,100672.81
2023-01-23T06:04:38.206Z,100673.66
2023-01-23T06:07:04.953Z,100671.81
2023-01-23T06:09:31.699Z,100673.63
2023-01-23T06:11:58.309Z,100674.53
2023-01-23T06:14:25.097Z,100678.94
2023-01-23T06:16:51.741Z,100673.72
2023-01-23T06:19:18.353Z,100691.03
2023-01-23T06:21:44.950Z,100686.72
2023-01-23T06:24:11.525Z,100689.34
2023-01-23T06:26:38.139Z,100684.19
2023-01-23T06:29:04.876Z,100679.00
2023-01-23T06:31:32.755Z,100681.59
2023-01-23T06:33:59.993Z,100686.81
2023-01-23T06:36:27.197Z,100683.34
2023-01-23T06:38:53.876Z,100694.66
2023-01-23T06:41:20.996Z,100699.00
2023-01-23T06:43:47.889Z,100701.63
2023-01-23T06:46:16.470Z,100699.94
2023-01-23T06:48:43.155Z,100705.94
2023-01-23T06:51:09.899Z,100705.09
2023-01-23T06:53:36.567Z,100708.56
2023-01-23T06:56:05.822Z,100699.88
2023-01-23T06:58:33.758Z,100704.22
2023-01-23T07:01:08.137Z,100709.50
2023-01-23T07:03:34.754Z,100705.09
2023-01-23T07:06:07.122Z,100714.66
2023-01-23T07:08:35.100Z,100719.00
2023-01-23T07:11:02.433Z,100717.25
2023-01-23T07:13:29.703Z,100719.00
2023-01-23T07:15:56.470Z,100721.66
2023-01-23T07:18:23.856Z,100720.78
2023-01-23T07:20:50.872Z,100723.41
2023-01-23T07:23:17.593Z,100727.66
2023-01-23T07:25:44.632Z,100731.16
2023-01-23T07:28:11.343Z,100728.56
2023-01-23T07:30:38.216Z,100734.56
2023-01-23T07:33:05.277Z,100748.53
2023-01-23T07:35:32.253Z,100750.22
2023-01-23T07:37:58.891Z,100748.47
2023-01-23T07:40:25.652Z,100753.69
2023-01-23T07:42:52.260Z,100756.28
2023-01-23T07:45:18.930Z,100762.38
2023-01-23T07:47:45.773Z,100763.31
2023-01-23T07:50:13.560Z,100759.78
2023-01-23T07:52:40.348Z,100762.22
2023-01-23T07:55:07.265Z,100767.50
2023-01-23T07:57:36.766Z,100770.97
2023-01-23T08:00:04.521Z,100770.09
2023-01-23T08:02:31.493Z,100776.09
2023-01-23T08:04:58.116Z,100776.13
2023-01-23T08:07:24.840Z,100783.06
2023-01-23T08:09:51.479Z,100783.94
2023-01-23T08:12:18.149Z,100783.13
2023-01-23T08:14:44.714Z,100790.03
2023-01-23T08:17:11.410Z,100791.84
2023-01-23T08:19:37.969Z,100787.56
2023-01-23T08:22:05.080Z,100794.41
2023-01-23T08:24:32.287Z,100798.72
2023-01-23T08:26:59.221Z,100798.72
2023-01-23T08:29:26.078Z,100802.19
2023-01-23T08:31:55.047Z,100808.22
2023-01-23T08:34:24.035Z,100807.41
2023-01-23T08:36:50.812Z,100814.38
2023-01-23T08:39:18.147Z,100817.84
2023-01-23T08:41:44.796Z,100820.44
2023-01-23T08:44:12.061Z,100831.75
2023-01-23T08:46:39.162Z,100830.88
2023-01-23T08:49:05.759Z,100827.41
2023-01-23T08:51:32.432Z,100827.47
2023-01-23T08:53:59.081Z,100824.72
2023-01-23T08:56:26.139Z,100831.69
2023-01-23T08:58:53.232Z,100832.53
2023-01-23T09:01:25.240Z,100829.94
2023-01-23T09:03:52.793Z,100829.84
2023-01-23T09:06:22.910Z,100832.47
2023-01-23T09:08:49.779Z,100827.25
2023-01-23T09:11:17.380Z,100835.84
2023-01-23T09:13:48.656Z,100835.00
2023-01-23T09:16:15.771Z,100835.88
2023-01-23T09:18:42.821Z,100845.44
2023-01-23T09:21:12.879Z,100855.00
2023-01-23T09:23:39.937Z,100847.97
2023-01-23T09:26:12.068Z,100851.50
2023-01-23T09:28:42.566Z,100856.75
2023-01-23T09:31:11.865Z,100858.50
2023-01-23T09:33:39.008Z,100861.03
2023-01-23T09:36:06.013Z,100861.00
2023-01-23T09:38:34.253Z,100871.38
2023-01-23T09:41:14.159Z,100861.72
2023-01-23T09:44:02.307Z,100868.75
2023-01-23T09:46:46.941Z,100864.34
2023-01-23T09:49:48.781Z,100868.72
2023-01-23T09:52:20.694Z,100866.13
2023-01-23T09:54:55.833Z,100860.94
2023-01-23T09:57:25.092Z,100857.50
2023-01-23T10:00:12.700Z,100850.50
2023-01-23T10:02:43.662Z,100847.81
2023-01-23T10:05:16.344Z,100847.78
2023-01-23T10:07:49.633Z,100849.44
2023-01-23T10:10:25.953Z,100852.06
2023-01-23T10:13:11.508Z,100845.16
2023-01-23T10:15:59.215Z,100845.13
2023-01-23T10:18:47.722Z,100836.41
2023-01-23T10:21:29.266Z,100833.78
2023-01-23T10:24:19.216Z,100836.34
2023-01-23T10:26:47.727Z,100831.09
2023-01-23T10:29:26.732Z,100832.94
2023-01-23T10:31:58.687Z,100831.25
2023-01-23T10:34:35.459Z,100834.72
2023-01-23T10:37:14.343Z,100833.81
2023-01-23T10:39:57.837Z,100839.88
2023-01-23T10:42:26.772Z,100835.50
2023-01-23T10:44:54.047Z,100829.44
2023-01-23T10:47:43.230Z,100838.06
2023-01-23T10:50:11.242Z,100834.50
2023-01-23T10:52:42.386Z,100833.56
2023-01-23T10:55:31.414Z,100834.47
2023-01-23T10:58:03.188Z,100834.41
2023-01-23T11:00:39.796Z,100837.09
2023-01-23T11:03:26.492Z,100828.44
2023-01-23T11:06:07.146Z,100827.47
2023-01-23T11:08:40.476Z,100827.34
2023-01-23T11:11:16.118Z,100822.16
2023-01-23T11:13:44.496Z,100820.38
2023-01-23T11:16:18.686Z,100829.88
2023-01-23T11:19:08.016Z,100829.06
2023-01-23T11:21:57.887Z,100829.00
2023-01-23T11:24:41.347Z,100826.38
2023-01-23T11:27:19.351Z,100825.41
2023-01-23T11:30:25.916Z,100818.47
2023-01-23T11:32:59.322Z,100818.63
2023-01-23T11:35:58.197Z,100825.66
2023-01-23T11:38:31.297Z,100822.13
2023-01-23T11:40:58.093Z,100823.84
2023-01-23T11:43:24.789Z,100826.41
2023-01-23T11:46:25.110Z,100820.38
2023-01-23T11:49:10.227Z,100823.84
2023-01-23T11:52:01.032Z,100822.97
2023-01-23T11:55:25.607Z,100819.59
2023-01-23T11:58:14.350Z,100826.63
2023-01-23T12:01:05.448Z,100819.66
2023-01-23T12:04:05.765Z,100826.66
2023-01-23T12:06:41.172Z,100811.84
2023-01-23T12:09:16.017Z,100808.47
2023-01-23T12:12:14.832Z,100802.38
2023-01-23T12:15:00.775Z,100804.13
2023-01-23T12:17:47.679Z,100805.88
2023-01-23T12:20:23.587Z,100804.09
2023-01-23T12:23:08.219Z,100801.50
2023-01-23T12:25:37.603Z,100798.09
2023-01-23T12:28:10.299Z,100801.59
2023-01-23T12:30:42.917Z,100803.34
2023-01-23T12:33:38.357Z,100799.84
2023-01-23T12:36:23.697Z,100802.47
2023-01-23T12:38:56.282Z,100803.34
2023-01-23T12:41:52.706Z,100804.19
2023-01-23T12:44:34.169Z,100809.41
2023-01-23T12:47:11.109Z,100800.66
2023-01-23T12:49:46.896Z,100801.50
2023-01-23T12:52:25.865Z,100798.09
2023-01-23T12:55:20.388Z,100793.78
2023-01-23T12:57:59.542Z,100795.53
2023-01-23T13:01:02.371Z,100783.25
2023-01-23T13:03:55.062Z,100790.28
2023-01-23T13:06:34.947Z,100787.69
2023-01-23T13:09:22.435Z,100787.59
2023-01-23T13:12:21.675Z,100777.31
2023-01-23T13:15:14.442Z,100778.97
2023-01-23T13:17:48.658Z,100784.13
2023-01-23T13:20:42.788Z,100788.53
2023-01-23T13:23:30.408Z,100786.84
2023-01-23T13:26:12.264Z,100784.19
2023-01-23T13:29:04.783Z,100781.72
2023-01-23T13:31:47.068Z,100786.03
2023-01-23T13:34:17.070Z,100786.03
2023-01-23T13:36:45.776Z,100782.66
2023-01-23T13:39:15.132Z,100782.53
2023-01-23T13:41:41.749Z,100777.31
2023-01-23T13:44:41.630Z,100782.47
2023-01-23T14:22:44.096Z,100778.00
2023-01-23T14:25:18.538Z,100785.84
2023-01-23T14:27:53.719Z,100782.25
2023-01-23T14:30:27.071Z,100789.34
2023-01-23T14:32:54.433Z,100787.59
2023-01-23T14:35:25.392Z,100791.09
2023-01-23T14:37:54.236Z,100792.78
2023-01-23T14:40:27.586Z,100793.75
2023-01-23T14:43:01.301Z,100797.25
2023-01-23T14:45:33.567Z,100797.25
2023-01-23T14:48:08.761Z,100788.59
2023-01-23T14:50:36.134Z,100790.31
2023-01-23T14:53:11.967Z,100798.13
2023-01-23T14:55:42.029Z,100788.53
2023-01-23T14:58:25.303Z,100794.56
2023-01-23T15:00:53.973Z,100802.41
2023-01-23T15:03:44.539Z,100802.47
2023-01-23T15:06:21.878Z,100802.47
2023-01-23T15:08:49.980Z,100803.22
2023-01-23T15:11:24.824Z,100806.81
2023-01-23T15:14:01.516Z,100805.03
2023-01-23T15:16:38.101Z,100798.13
2023-01-23T15:19:16.534Z,100805.16
2023-01-23T15:21:43.201Z,100810.31
2023-01-23T15:24:09.886Z,100810.31
2023-01-23T15:26:38.680Z,100799.94
2023-01-23T15:29:08.321Z,100799.88
2023-01-23T15:31:34.984Z,100802.47
2023-01-23T15:34:17.111Z,100792.06
2023-01-23T15:37:06.612Z,100792.06
2023-01-23T15:39:55.772Z,100799.06
2023-01-23T15:42:31.837Z,100799.09
2023-01-23T15:45:01.527Z,100806.03
2023-01-23T15:47:30.206Z,100800.03
2023-01-23T15:50:01.442Z,100810.56
2023-01-23T15:52:31.363Z,100818.28
2023-01-23T15:55:04.300Z,100822.66
2023-01-23T15:57:31.030Z,100821.81
2023-01-23T15:59:57.670Z,100824.41
2023-01-23T16:02:31.294Z,100825.19
2023-01-23T16:05:00.909Z,100821.78
2023-01-23T16:07:39.823Z,100824.44
2023-01-23T16:10:20.316Z,100833.13
2023-01-23T16:12:48.996Z,100827.84
2023-01-23T16:15:20.113Z,100830.41
2023-01-23T16:17:47.713Z,100834.75
2023-01-23T16:20:22.132Z,100837.44
2023-01-23T16:22:52.120Z,100831.38
2023-01-23T16:25:38.276Z,100833.09
2023-01-23T16:28:18.469Z,100837.50
2023-01-23T16:30:46.075Z,100841.88
2023-01-23T16:33:12.997Z,100834.81
2023-01-23T16:35:40.293Z,100840.03
2023-01-23T16:38:07.419Z,100849.56
2023-01-23T16:40:34.575Z,100850.41
2023-01-23T16:43:03.107Z,100853.81
2023-01-23T16:45:32.317Z,100844.31
2023-01-23T16:47:59.112Z,100848.66
2023-01-23T16:50:38.096Z,100853.88
2023-01-23T16:53:24.125Z,100845.16
2023-01-23T16:55:54.359Z,100841.59
2023-01-23T16:58:27.816Z,100841.63
2023-01-23T17:01:01.136Z,100841.66
2023-01-23T17:03:32.860Z,100849.53
2023-01-23T17:05:59.877Z,100845.97
2023-01-23T17:08:26.966Z,100850.38
2023-01-23T17:11:02.368Z,100849.53
2023-01-23T17:13:33.485Z,100843.44
2023-01-23T17:16:01.232Z,100846.94
2023-01-23T17:18:37.307Z,100848.72
2023-01-23T17:21:05.773Z,100851.25
2023-01-23T17:23:32.785Z,100848.69
2023-01-23T17:26:01.323Z,100849.44
2023-01-23T17:28:28.737Z,100846.00
2023-01-23T17:30:58.244Z,100843.47
2023-01-23T17:33:30.340Z,100840.91
2023-01-23T17:35:57.639Z,100847.78
2023-01-23T17:38:27.308Z,100843.38
2023-01-23T17:40:54.003Z,100845.16
2023-01-23T17:43:21.535Z,100841.69
2023-01-23T17:45:51.389Z,100842.56
2023-01-23T17:48:40.635Z,100841.72
2023-01-23T17:51:16.001Z,100841.69
2023-01-23T17:53:43.012Z,100850.38
2023-01-23T17:56:09.967Z,100847.72
2023-01-23T17:58:36.571Z,100847.81
2023-01-23T18:01:03.320Z,100847.81
2023-01-23T18:03:30.034Z,100852.09
2023-01-23T18:05:56.676Z,100847.78
2023-01-23T18:08:23.388Z,100855.59
2023-01-23T18:10:56.362Z,100860.75
2023-01-23T18:13:33.137Z,100860.75
2023-01-23T18:16:11.647Z,100862.53
2023-01-23T18:18:40.471Z,100865.06
2023-01-23T18:21:14.072Z,100859.81
2023-01-23T18:23:41.182Z,100856.25
2023-01-23T18:26:37.951Z,100851.19
2023-01-23T18:29:10.313Z,100858.94
2023-01-23T18:32:15.198Z,100860.75
2023-01-23T18:35:14.255Z,100858.94
2023-01-23T18:37:43.855Z,100864.22
2023-01-23T18:40:37.120Z,100860.69
2023-01-23T18:43:34.144Z,100859.03
2023-01-23T18:46:01.047Z,100864.16
2023-01-23T18:48:28.011Z,100867.63
2023-01-23T18:51:00.440Z,100864.16
2023-01-23T18:53:44.798Z,100860.75
2023-01-23T18:56:25.699Z,100857.13
2023-01-23T18:59:19.343Z,100845.09
2023-01-23T19:01:55.299Z,100846.69
2023-01-23T19:04:38.667Z,100856.34
2023-01-23T19:07:16.022Z,100860.66
2023-01-23T19:09:46.557Z,100855.53
2023-01-23T19:12:41.601Z,100855.53
2023-01-23T19:15:16.313Z,100865.03
2023-01-23T19:17:45.962Z,100861.56
2023-01-23T19:20:36.504Z,100874.66
2023-01-23T19:23:17.285Z,100865.88
2023-01-23T19:25:47.924Z,100870.28
2023-01-23T19:28:15.910Z,100869.38
2023-01-23T19:30:43.423Z,100867.72
2023-01-23T19:33:18.400Z,100863.38
2023-01-23T19:35:46.087Z,100865.97
2023-01-23T19:38:12.969Z,100865.03
2023-01-23T19:40:40.082Z,100872.84
2023-01-23T19:43:14.516Z,100871.19
2023-01-23T19:45:41.915Z,100878.09
2023-01-23T19:48:09.173Z,100878.16
2023-01-23T19:50:36.324Z,100878.09
2023-01-23T19:53:04.870Z,100883.22
2023-01-23T19:55:34.495Z,100885.84
2023-01-23T19:58:01.274Z,100888.44
2023-01-23T20:00:30.912Z,100893.69
2023-01-23T20:02:58.057Z,100893.69
2023-01-23T20:05:25.549Z,100895.47
2023-01-23T20:07:53.899Z,100898.06
2023-01-23T20:10:20.978Z,100894.63
2023-01-23T20:12:52.610Z,100904.25
2023-01-23T20:15:22.402Z,100901.50
2023-01-23T20:17:49.661Z,100903.31
2023-01-23T20:20:16.633Z,100897.22
2023-01-23T20:22:43.672Z,100902.50
2023-01-23T20:25:16.559Z,100896.50
2023-01-23T20:27:43.382Z,100899.06
2023-01-23T20:30:20.318Z,100897.31
2023-01-23T20:32:47.311Z,100897.31
2023-01-23T20:35:13.923Z,100893.84
2023-01-23T20:37:40.568Z,100905.94
2023-01-23T20:40:09.096Z,100902.50
2023-01-23T20:42:35.724Z,100898.16
2023-01-23T20:45:02.449Z,100909.41
2023-01-23T20:47:29.089Z,100900.72
2023-01-23T20:49:55.669Z,100897.34
2023-01-23T20:52:40.735Z,100898.06
2023-01-23T20:55:07.537Z,100900.69
2023-01-23T20:57:53.024Z,100895.47
2023-01-23T21:00:19.872Z,100897.22
2023-01-23T21:02:46.583Z,100897.19
2023-01-23T21:05:13.251Z,100895.47
2023-01-23T21:07:39.910Z,100894.63
2023-01-23T21:10:06.816Z,100887.63
2023-01-23T21:12:33.469Z,100887.72
2023-01-23T21:15:00.955Z,100895.56
2023-01-23T21:17:27.600Z,100894.69
2023-01-23T21:19:54.180Z,100887.66
2023-01-23T21:22:20.931Z,100895.50
2023-01-23T21:24:47.538Z,100888.53
2023-01-23T21:27:14.126Z,100892.88
2023-01-23T21:29:40.803Z,100889.41
2023-01-23T21:32:07.485Z,100898.97
2023-01-23T21:34:34.226Z,100898.06
2023-01-23T21:37:00.957Z,100897.16
2023-01-23T21:39:27.611Z,100895.50
2023-01-23T21:41:54.186Z,100899.88
2023-01-23T21:44:20.808Z,100896.34
2023-01-23T21:46:47.438Z,100896.38
2023-01-23T21:49:14.009Z,100900.72
2023-01-23T21:51:40.914Z,100899.81
2023-01-23T21:54:07.628Z,100903.22
2023-01-23T21:56:34.328Z,100899.75
2023-01-23T21:59:01.364Z,100902.34
2023-01-23T22:01:44.644Z,100901.50
2023-01-23T22:04:18.459Z,100903.28
2023-01-23T22:06:45.861Z,100898.06
2023-01-23T22:09:18.021Z,100898.06
2023-01-23T22:11:45.189Z,100905.97
2023-01-23T22:14:12.142Z,100905.94
2023-01-23T22:16:54.593Z,100904.25
2023-01-23T22:19:25.609Z,100902.44
2023-01-23T22:21:55.924Z,100905.03
2023-01-23T22:24:23.028Z,100905.81
2023-01-23T22:26:49.696Z,100899.75
2023-01-23T22:29:16.325Z,100899.75
2023-01-23T22:31:43.558Z,100904.09
2023-01-23T22:34:10.585Z,100898.97
2023-01-23T22:36:37.499Z,100898.09
2023-01-23T22:39:04.342Z,100894.59
2023-01-23T22:41:31.043Z,100898.97
2023-01-23T22:43:59.419Z,100906.72
2023-01-23T22:46:26.824Z,100903.25
2023-01-23T22:48:53.658Z,100905.91
2023-01-23T22:51:24.607Z,100898.97
2023-01-23T22:53:52.723Z,100900.69
2023-01-23T22:56:19.409Z,100912.81
2023-01-23T22:58:47.825Z,100915.38
2023-01-23T23:01:14.929Z,100917.13
2023-01-23T23:03:41.955Z,100918.03
2023-01-23T23:06:11.760Z,100917.22
2023-01-23T23:08:38.817Z,100921.56
2023-01-23T23:11:08.814Z,100916.28
2023-01-23T23:13:37.911Z,100926.72
2023-01-23T23:16:09.458Z,100916.28
2023-01-23T23:18:38.284Z,100915.41
2023-01-23T23:21:11.345Z,100914.53
2023-01-23T23:23:38.527Z,100914.53
2023-01-23T23:26:06.386Z,100922.38
2023-01-23T23:28:34.041Z,100923.22
2023-01-23T23:31:01.017Z,100918.88
2023-01-23T23:33:28.239Z,100918.88
2023-01-23T23:35:54.911Z,100918.97
2023-01-23T23:38:21.937Z,100921.50
2023-01-23T23:41:03.371Z,100919.78
2023-01-23T23:43:30.221Z,100919.75
2023-01-23T23:45:59.724Z,100922.34
2023-01-23T23:48:28.304Z,100922.34
2023-01-23T23:50:55.511Z,100918.97
2023-01-23T23:53:22.904Z,100912.00
2023-01-23T23:55:49.757Z,100911.94
2023-01-23T23:58:16.804Z,100906.72
